createdAt,value
2019-04-28T00:02:26.240Z,72.78
2019-04-28T00:04:56.317Z,72.60
2019-04-28T00:07:26.391Z,73.34
2019-04-28T00:09:56.471Z,74.25
2019-04-28T00:12:27.527Z,73.36
2019-04-28T00:14:57.643Z,73.20
2019-04-28T00:17:27.653Z,74.15
2019-04-28T00:20:01.231Z,74.13
2019-04-28T00:22:49.012Z,74.22
2019-04-28T00:25:21.467Z,74.00
2019-04-28T00:27:51.684Z,73.83
2019-04-28T00:30:21.821Z,74.00
2019-04-28T00:32:51.938Z,73.65
2019-04-28T00:35:23.247Z,72.77
2019-04-28T00:37:53.441Z,72.47
2019-04-28T00:40:23.479Z,72.44
2019-04-28T00:42:53.510Z,73.10
2019-04-28T00:45:23.727Z,72.89
2019-04-28T00:47:53.758Z,71.93
2019-04-28T00:50:23.800Z,71.63
2019-04-28T00:52:54.213Z,72.21
2019-04-28T00:55:24.216Z,71.82
2019-04-28T00:57:54.269Z,71.45
2019-04-28T01:00:25.986Z,71.18
2019-04-28T01:02:56.011Z,69.65
2019-04-28T01:05:26.142Z,70.68
2019-04-28T01:07:56.243Z,70.75
2019-04-28T01:10:27.837Z,71.09
2019-04-28T01:12:57.909Z,70.30
2019-04-28T01:15:39.636Z,68.98
2019-04-28T01:18:13.850Z,69.14
2019-04-28T01:20:43.925Z,70.12
2019-04-28T01:23:13.949Z,70.35
2019-04-28T01:25:43.966Z,70.60
2019-04-28T01:28:13.960Z,69.26
2019-04-28T01:30:45.646Z,70.34
2019-04-28T01:33:17.383Z,71.22
2019-04-28T01:35:49.332Z,70.34
2019-04-28T01:38:20.585Z,69.78
2019-04-28T01:40:50.598Z,68.35
2019-04-28T01:43:20.723Z,68.10
2019-04-28T01:45:50.846Z,67.71
2019-04-28T01:48:20.875Z,69.03
2019-04-28T01:50:51.014Z,68.85
2019-04-28T01:53:21.021Z,68.37
2019-04-28T01:55:51.100Z,68.55
2019-04-28T01:58:21.124Z,68.42
2019-04-28T02:00:51.262Z,67.93
2019-04-28T02:03:21.122Z,67.88
2019-04-28T02:05:51.209Z,67.21
2019-04-28T02:08:21.223Z,66.07
2019-04-28T02:10:51.239Z,65.66
2019-04-28T02:13:21.489Z,66.91
2019-04-28T02:15:51.562Z,65.22
2019-04-28T02:18:21.704Z,64.55
2019-04-28T02:20:53.385Z,66.21
2019-04-28T02:23:25.061Z,64.15
2019-04-28T02:25:55.130Z,64.46
2019-04-28T02:28:25.118Z,64.80
2019-04-28T02:30:55.180Z,63.54
2019-04-28T02:33:25.254Z,64.03
2019-04-28T02:35:55.266Z,64.50
2019-04-28T02:38:25.282Z,64.48
2019-04-28T02:40:55.278Z,65.43
2019-04-28T02:43:25.353Z,64.44
2019-04-28T02:45:56.551Z,63.80
2019-04-28T02:48:27.202Z,63.35
2019-04-28T02:51:01.263Z,64.70
2019-04-28T02:53:33.721Z,63.89
2019-04-28T02:56:04.290Z,64.33
2019-04-28T02:58:34.361Z,64.04
2019-04-28T03:01:15.227Z,62.15
2019-04-28T03:03:36.277Z,63.96
2019-04-28T03:06:06.319Z,63.88
2019-04-28T03:08:36.415Z,63.31
2019-04-28T03:11:06.420Z,62.97
2019-04-28T03:13:36.606Z,63.48
2019-04-28T03:16:06.622Z,62.96
2019-04-28T03:18:37.092Z,62.42
2019-04-28T03:21:07.163Z,61.64
2019-04-28T03:23:37.175Z,61.15
2019-04-28T03:26:17.797Z,61.43
2019-04-28T03:28:51.379Z,61.09
2019-04-28T03:31:59.134Z,61.46
2019-04-28T03:33:58.000Z,61.60
2019-04-28T03:36:32.525Z,61.18
2019-04-28T03:39:00.737Z,61.71
2019-04-28T03:41:32.535Z,61.83
2019-04-28T03:44:02.888Z,61.89
2019-04-28T03:46:37.406Z,60.83
2019-04-28T03:49:07.443Z,60.75
2019-04-28T03:51:37.473Z,61.63
2019-04-28T03:54:07.485Z,61.14
2019-04-28T03:56:37.503Z,60.41
2019-04-28T03:59:10.235Z,61.90
2019-04-28T04:01:53.060Z,61.33
2019-04-28T04:04:11.363Z,60.83
2019-04-28T04:06:41.455Z,62.28
2019-04-28T04:09:11.537Z,61.16
2019-04-28T04:11:46.153Z,61.24
2019-04-28T04:14:34.275Z,60.94
2019-04-28T04:17:14.850Z,60.48
2019-04-28T04:19:44.922Z,59.75
2019-04-28T04:22:14.952Z,60.22
2019-04-28T04:24:44.946Z,61.42
2019-04-28T04:27:15.020Z,60.91
2019-04-28T04:29:46.137Z,61.68
2019-04-28T04:32:23.142Z,62.10
2019-04-28T04:34:50.370Z,60.26
2019-04-28T04:37:20.499Z,61.08
2019-04-28T04:40:13.255Z,61.79
2019-04-28T04:42:42.880Z,60.92
2019-04-28T04:45:13.036Z,60.35
2019-04-28T04:47:43.069Z,59.54
2019-04-28T04:50:13.301Z,60.36
2019-04-28T04:52:44.403Z,60.33
2019-04-28T04:55:14.407Z,59.95
2019-04-28T04:57:44.453Z,60.84
2019-04-28T05:00:25.812Z,59.07
2019-04-28T05:02:57.486Z,59.17
2019-04-28T05:05:40.215Z,60.78
2019-04-28T05:08:15.281Z,60.18
2019-04-28T05:10:41.702Z,60.49
2019-04-28T05:13:11.770Z,60.42
2019-04-28T05:15:41.768Z,60.53
2019-04-28T05:18:11.810Z,59.25
2019-04-28T05:20:41.848Z,59.13
2019-04-28T05:23:19.694Z,59.60
2019-04-28T05:25:51.053Z,60.58
2019-04-28T05:28:21.058Z,59.96
2019-04-28T05:30:51.187Z,60.41
2019-04-28T05:33:30.612Z,59.10
2019-04-28T05:36:02.660Z,59.83
2019-04-28T05:38:30.485Z,59.85
2019-04-28T05:41:02.840Z,59.01
2019-04-28T05:43:32.972Z,59.80
2019-04-28T05:46:03.001Z,59.50
2019-04-28T05:48:51.307Z,60.53
2019-04-28T05:51:31.578Z,58.19
2019-04-28T05:54:19.796Z,58.23
2019-04-28T05:56:59.715Z,58.41
2019-04-28T05:59:43.799Z,57.64
2019-04-28T06:02:15.417Z,58.72
2019-04-28T06:04:47.110Z,56.67
2019-04-28T06:07:21.518Z,58.46
2019-04-28T06:12:49.585Z,57.25
2019-04-28T06:15:20.448Z,57.52
2019-04-28T06:17:50.503Z,57.05
2019-04-28T06:20:20.527Z,56.86
2019-04-28T06:22:51.707Z,57.10
2019-04-28T06:25:21.776Z,56.58
2019-04-28T06:27:51.830Z,56.85
2019-04-28T06:30:21.997Z,55.65
2019-04-28T06:32:52.059Z,55.71
2019-04-28T06:35:22.079Z,55.06
2019-04-28T06:37:52.163Z,56.25
2019-04-28T06:40:22.197Z,54.71
2019-04-28T06:42:52.192Z,54.98
2019-04-28T06:45:22.349Z,54.07
2019-04-28T06:47:52.354Z,54.25
2019-04-28T06:50:22.359Z,53.40
2019-04-28T06:52:52.393Z,53.89
2019-04-28T06:55:22.405Z,54.88
2019-04-28T06:57:52.429Z,53.95
2019-04-28T07:00:22.457Z,53.59
2019-04-28T07:02:52.536Z,53.98
2019-04-28T07:05:22.543Z,53.33
2019-04-28T07:07:52.573Z,52.60
2019-04-28T07:10:22.596Z,51.82
2019-04-28T07:12:52.613Z,53.25
2019-04-28T07:15:22.694Z,52.44
2019-04-28T07:17:52.745Z,52.13
2019-04-28T07:20:34.235Z,52.71
2019-04-28T07:23:04.694Z,51.99
2019-04-28T07:25:34.728Z,50.63
2019-04-28T07:28:04.978Z,51.32
2019-04-28T07:30:37.837Z,50.86
2019-04-28T07:33:07.859Z,51.34
2019-04-28T07:35:39.079Z,50.93
2019-04-28T07:38:09.102Z,50.68
2019-04-28T07:40:45.415Z,50.33
2019-04-28T07:43:15.641Z,50.07
2019-04-28T07:45:45.671Z,49.46
2019-04-28T07:48:15.690Z,51.76
2019-04-28T07:50:45.707Z,49.92
2019-04-28T07:53:29.156Z,48.55
2019-04-28T07:55:59.194Z,49.88
2019-04-28T07:58:29.271Z,47.68
2019-04-28T08:00:59.432Z,49.54
2019-04-28T08:03:29.449Z,48.19
2019-04-28T08:05:59.477Z,48.16
2019-04-28T08:08:29.484Z,48.49
2019-04-28T08:10:59.525Z,48.42
2019-04-28T08:13:29.547Z,47.83
2019-04-28T08:15:59.605Z,48.48
2019-04-28T08:18:31.632Z,48.32
2019-04-28T08:21:01.300Z,47.97
2019-04-28T08:23:31.392Z,48.45
2019-04-28T08:26:01.410Z,48.39
2019-04-28T08:28:32.380Z,43.88
2019-04-28T08:31:05.533Z,46.03
2019-04-28T08:33:39.996Z,46.81
2019-04-28T08:36:10.381Z,47.11
2019-04-28T08:38:40.413Z,44.29
2019-04-28T08:41:10.546Z,45.37
2019-04-28T08:43:40.563Z,44.98
2019-04-28T08:46:10.598Z,44.67
2019-04-28T08:48:40.596Z,44.05
2019-04-28T08:51:10.666Z,44.44
2019-04-28T08:53:41.678Z,42.14
2019-04-28T08:56:11.677Z,40.73
2019-04-28T08:58:41.663Z,43.06
2019-04-28T09:01:11.857Z,41.45
2019-04-28T09:03:41.845Z,42.08
2019-04-28T09:06:11.862Z,42.30
2019-04-28T09:08:41.936Z,40.68
2019-04-28T09:11:11.944Z,38.80
2019-04-28T09:13:43.835Z,42.52
2019-04-28T09:16:13.792Z,40.14
2019-04-28T09:18:43.792Z,37.19
2019-04-28T09:21:13.804Z,41.04
2019-04-28T09:23:43.791Z,39.38
2019-04-28T09:26:13.878Z,40.14
2019-04-28T09:28:43.959Z,37.80
2019-04-28T09:31:15.088Z,37.51
2019-04-28T09:33:45.225Z,38.50
2019-04-28T09:36:15.217Z,38.04
2019-04-28T09:38:45.225Z,37.59
2019-04-28T09:41:15.276Z,37.74
2019-04-28T09:44:05.009Z,36.18
2019-04-28T09:46:42.428Z,38.45
2019-04-28T09:49:12.468Z,36.42
2019-04-28T09:51:42.514Z,36.81
2019-04-28T09:54:12.519Z,36.95
2019-04-28T09:56:55.777Z,34.49
2019-04-28T09:59:14.500Z,37.21
2019-04-28T10:01:44.515Z,37.39
2019-04-28T10:04:14.570Z,36.94
2019-04-28T10:06:44.573Z,36.38
2019-04-28T10:09:14.828Z,36.12
2019-04-28T10:11:46.093Z,36.11
2019-04-28T10:14:19.461Z,35.50
2019-04-28T10:16:49.459Z,34.47
2019-04-28T10:19:19.498Z,34.94
2019-04-28T10:21:49.486Z,36.18
2019-04-28T10:24:19.539Z,34.57
2019-04-28T10:26:49.520Z,33.57
2019-04-28T10:29:19.579Z,34.49
2019-04-28T10:31:49.577Z,32.99
2019-04-28T10:34:19.710Z,32.70
2019-04-28T10:36:49.723Z,32.97
2019-04-28T10:39:33.179Z,31.58
2019-04-28T10:42:03.271Z,34.12
2019-04-28T10:44:34.896Z,33.99
2019-04-28T10:47:05.258Z,33.43
2019-04-28T10:49:35.249Z,30.62
2019-04-28T10:52:05.372Z,29.46
2019-04-28T10:54:35.385Z,29.67
2019-04-28T10:57:05.599Z,28.50
2019-04-28T10:59:35.591Z,26.69
2019-04-28T11:02:05.721Z,27.48
2019-04-28T11:04:40.670Z,27.20
2019-04-28T11:07:15.438Z,29.34
2019-04-28T11:09:47.092Z,26.93
2019-04-28T11:12:28.055Z,27.92
2019-04-28T11:14:58.126Z,27.94
2019-04-28T11:17:28.272Z,29.04
2019-04-28T11:19:59.377Z,26.43
2019-04-28T11:22:29.425Z,26.83
2019-04-28T11:24:59.406Z,27.15
2019-04-28T11:27:30.022Z,25.99
2019-04-28T11:30:00.020Z,25.81
2019-04-28T11:32:30.255Z,26.23
2019-04-28T11:35:04.598Z,25.13
2019-04-28T11:37:34.664Z,26.82
2019-04-28T11:40:06.613Z,27.91
2019-04-28T11:42:36.699Z,24.75
2019-04-28T11:45:06.930Z,24.04
2019-04-28T11:47:36.941Z,24.48
2019-04-28T11:50:07.198Z,25.86
2019-04-28T11:52:37.206Z,24.76
2019-04-28T11:55:07.645Z,24.80
2019-04-28T11:57:37.661Z,24.26
2019-04-28T12:00:18.673Z,24.12
2019-04-28T12:02:48.672Z,25.62
2019-04-28T12:05:20.616Z,24.96
2019-04-28T12:07:50.624Z,25.42
2019-04-28T12:10:37.517Z,22.90
2019-04-28T12:13:09.256Z,23.42
2019-04-28T12:15:53.101Z,25.46
2019-04-28T12:18:34.024Z,25.03
2019-04-28T12:21:04.182Z,24.32
2019-04-28T12:23:34.211Z,25.22
2019-04-28T12:26:04.208Z,24.57
2019-04-28T12:28:34.301Z,25.42
2019-04-28T12:31:04.370Z,24.94
2019-04-28T12:33:34.367Z,24.75
2019-04-28T12:36:06.439Z,24.43
2019-04-28T12:38:36.426Z,23.21
2019-04-28T12:41:06.474Z,22.55
2019-04-28T12:43:36.536Z,23.76
2019-04-28T12:46:06.612Z,22.50
2019-04-28T12:48:36.728Z,22.81
2019-04-28T12:51:06.802Z,23.57
2019-04-28T12:53:38.333Z,22.59
2019-04-28T12:56:08.473Z,22.47
2019-04-28T12:58:38.519Z,23.19
2019-04-28T13:01:29.352Z,23.85
2019-04-28T13:04:16.269Z,24.28
2019-04-28T13:06:47.912Z,22.90
2019-04-28T13:09:17.959Z,24.14
2019-04-28T13:11:48.025Z,24.97
2019-04-28T13:14:18.016Z,24.20
2019-04-28T13:16:48.024Z,22.59
2019-04-28T13:19:18.078Z,24.87
2019-04-28T13:21:48.183Z,25.10
2019-04-28T13:24:18.273Z,23.70
2019-04-28T13:26:48.270Z,24.45
2019-04-28T13:29:18.379Z,25.31
2019-04-28T13:31:48.494Z,25.38
2019-04-28T13:34:20.180Z,23.79
2019-04-28T13:36:50.184Z,25.35
2019-04-28T13:39:24.657Z,26.47
2019-04-28T13:41:54.737Z,23.71
2019-04-28T13:44:38.476Z,23.89
2019-04-28T13:47:08.633Z,26.29
2019-04-28T13:49:42.897Z,23.66
2019-04-28T13:52:13.020Z,26.00
2019-04-28T13:54:42.987Z,23.76
2019-04-28T13:57:13.008Z,25.99
2019-04-28T13:59:43.837Z,26.10
2019-04-28T14:02:15.669Z,26.25
2019-04-28T14:04:47.354Z,25.23
2019-04-28T14:07:17.358Z,26.27
2019-04-28T14:09:47.426Z,26.83
2019-04-28T14:12:17.492Z,24.72
2019-04-28T14:14:47.498Z,26.23
2019-04-28T14:17:17.521Z,25.13
2019-04-28T14:19:47.559Z,24.26
2019-04-28T14:22:17.590Z,25.54
2019-04-28T14:24:47.590Z,25.92
2019-04-28T14:27:17.624Z,25.52
2019-04-28T14:29:47.664Z,23.79
2019-04-28T14:32:18.629Z,24.88
2019-04-28T14:34:48.647Z,25.14
2019-04-28T14:37:18.662Z,26.06
2019-04-28T14:39:48.681Z,24.80
2019-04-28T14:42:18.744Z,24.53
2019-04-28T14:44:48.750Z,24.80
2019-04-28T14:47:18.941Z,25.13
2019-04-28T14:49:48.925Z,25.19
2019-04-28T14:52:18.977Z,24.26
2019-04-28T14:54:49.021Z,24.84
2019-04-28T14:57:19.141Z,24.97
2019-04-28T14:59:49.210Z,23.96
2019-04-28T15:02:20.975Z,24.75
2019-04-28T15:05:08.868Z,25.26
2019-04-28T15:07:56.998Z,25.09
2019-04-28T15:10:37.628Z,24.26
2019-04-28T15:13:07.671Z,23.28
2019-04-28T15:15:37.899Z,23.61
2019-04-28T15:18:07.969Z,24.57
2019-04-28T15:20:38.049Z,24.35
2019-04-28T15:23:09.128Z,24.35
2019-04-28T15:25:39.205Z,24.69
2019-04-28T15:30:37.941Z,23.72
2019-04-28T15:33:08.019Z,25.06
2019-04-28T15:35:38.088Z,25.22
2019-04-28T15:38:08.223Z,24.76
2019-04-28T15:40:38.347Z,25.27
2019-04-28T15:43:08.340Z,25.80
2019-04-28T15:45:38.552Z,24.82
2019-04-28T15:48:08.719Z,23.20
2019-04-28T15:50:38.772Z,24.59
2019-04-28T15:53:08.851Z,24.51
2019-04-28T15:55:43.457Z,24.91
2019-04-28T15:58:33.202Z,24.18
2019-04-28T16:01:03.670Z,24.19
2019-04-28T16:03:33.681Z,24.99
2019-04-28T16:06:03.970Z,24.64
2019-04-28T16:08:34.118Z,24.66
2019-04-28T16:11:04.525Z,24.97
2019-04-28T16:13:34.526Z,24.12
2019-04-28T16:16:04.888Z,24.07
2019-04-28T16:18:34.903Z,24.83
2019-04-28T16:21:05.137Z,25.35
2019-04-28T16:23:35.222Z,25.01
2019-04-28T16:26:05.309Z,24.93
2019-04-28T16:28:35.568Z,25.20
2019-04-28T16:31:08.537Z,24.91
2019-04-28T16:33:38.562Z,25.84
2019-04-28T16:36:08.570Z,26.44
2019-04-28T16:38:38.644Z,25.46
2019-04-28T16:41:10.555Z,26.69
2019-04-28T16:43:43.911Z,24.47
2019-04-28T16:46:14.055Z,25.26
2019-04-28T16:48:44.063Z,25.85
2019-04-28T16:51:14.715Z,25.57
2019-04-28T16:53:44.704Z,25.48
2019-04-28T16:56:28.343Z,25.41
2019-04-28T16:59:02.793Z,26.81
2019-04-28T17:01:40.815Z,25.78
2019-04-28T17:04:11.169Z,25.83
2019-04-28T17:06:42.804Z,26.50
2019-04-28T17:09:14.433Z,26.56
2019-04-28T17:11:44.490Z,26.75
2019-04-28T17:14:14.553Z,26.64
2019-04-28T17:16:45.794Z,27.08
2019-04-28T17:19:16.205Z,26.58
2019-04-28T17:21:46.317Z,27.23
2019-04-28T17:24:16.402Z,28.85
2019-04-28T17:26:46.431Z,28.78
2019-04-28T17:29:16.514Z,27.16
2019-04-28T17:31:47.727Z,26.30
2019-04-28T17:34:17.747Z,27.38
2019-04-28T17:36:47.771Z,28.15
2019-04-28T17:39:19.602Z,28.34
2019-04-28T17:41:49.746Z,28.59
2019-04-28T17:44:19.866Z,28.46
2019-04-28T17:46:49.871Z,28.55
2019-04-28T17:49:22.693Z,28.99
2019-04-28T17:51:52.719Z,28.16
2019-04-28T17:54:22.857Z,28.62
2019-04-28T17:56:52.954Z,28.89
2019-04-28T17:59:23.098Z,29.08
2019-04-28T18:02:06.782Z,28.76
2019-04-28T18:04:38.423Z,29.45
2019-04-28T18:07:10.213Z,29.25
2019-04-28T18:09:40.232Z,29.25
2019-04-28T18:12:10.361Z,29.20
2019-04-28T18:14:41.848Z,30.06
2019-04-28T18:17:16.150Z,29.56
2019-04-28T18:19:46.135Z,30.48
2019-04-28T18:22:17.296Z,30.18
2019-04-28T18:24:47.429Z,30.59
2019-04-28T18:27:17.515Z,30.56
2019-04-28T18:29:47.525Z,30.85
2019-04-28T18:32:19.164Z,30.99
2019-04-28T18:34:51.896Z,31.00
2019-04-28T18:37:39.971Z,31.28
2019-04-28T18:40:14.717Z,31.37
2019-04-28T18:42:49.343Z,31.09
2019-04-28T18:45:19.411Z,31.36
2019-04-28T18:47:49.563Z,31.71
2019-04-28T18:50:19.692Z,31.58
2019-04-28T18:52:49.696Z,31.97
2019-04-28T18:55:19.776Z,31.97
2019-04-28T18:57:49.833Z,32.32
2019-04-28T19:00:21.788Z,33.89
2019-04-28T19:02:51.806Z,34.90
2019-04-28T19:05:23.517Z,35.99
2019-04-28T19:08:03.995Z,37.99
2019-04-28T19:10:35.640Z,38.71
2019-04-28T19:13:10.108Z,39.92
2019-04-28T19:15:54.211Z,39.97
2019-04-28T19:18:26.138Z,40.20
2019-04-28T19:20:56.284Z,41.38
2019-04-28T19:23:26.316Z,41.83
2019-04-28T19:25:56.355Z,42.78
2019-04-28T19:28:27.461Z,43.08
2019-04-28T19:30:57.505Z,43.43
2019-04-28T19:33:27.667Z,44.57
2019-04-28T19:35:57.750Z,45.38
2019-04-28T19:38:27.774Z,45.14
2019-04-28T19:40:57.796Z,45.95
2019-04-28T19:43:27.931Z,46.53
2019-04-28T19:46:00.687Z,46.95
2019-04-28T19:48:30.698Z,46.92
2019-04-28T19:51:00.706Z,47.18
2019-04-28T19:53:31.914Z,47.11
2019-04-28T19:56:04.668Z,47.39
2019-04-28T19:58:36.333Z,47.87
2019-04-28T20:01:20.864Z,48.49
2019-04-28T20:03:52.747Z,48.26
2019-04-28T20:06:22.814Z,48.95
2019-04-28T20:08:52.840Z,48.30
2019-04-28T20:11:22.834Z,48.58
2019-04-28T20:13:52.904Z,49.17
2019-04-28T20:16:22.997Z,49.65
2019-04-28T20:18:54.207Z,49.42
2019-04-28T20:21:24.355Z,49.86
2019-04-28T20:23:54.462Z,50.53
2019-04-28T20:26:24.623Z,50.67
2019-04-28T20:28:54.627Z,51.50
2019-04-28T20:31:24.636Z,51.11
2019-04-28T20:33:54.694Z,51.42
2019-04-28T20:36:29.385Z,50.87
2019-04-28T20:39:01.177Z,51.38
2019-04-28T20:41:32.780Z,50.27
2019-04-28T20:44:03.020Z,50.03
2019-04-28T20:46:33.075Z,50.74
2019-04-28T20:49:03.219Z,52.06
2019-04-28T20:51:33.289Z,52.66
2019-04-28T20:54:03.353Z,51.98
2019-04-28T20:56:33.382Z,51.36
2019-04-28T20:59:03.546Z,52.37
2019-04-28T21:01:33.553Z,52.46
2019-04-28T21:04:03.672Z,53.38
2019-04-28T21:06:33.635Z,52.69
2019-04-28T21:09:06.076Z,52.01
2019-04-28T21:11:37.519Z,52.65
2019-04-28T21:14:07.510Z,51.94
2019-04-28T21:16:37.548Z,52.23
2019-04-28T21:19:07.685Z,52.83
2019-04-28T21:21:37.702Z,54.25
2019-04-28T21:24:08.678Z,55.77
2019-04-28T21:26:38.703Z,56.50
2019-04-28T21:29:08.780Z,56.56
2019-04-28T21:31:38.801Z,57.09
2019-04-28T21:34:08.830Z,56.88
2019-04-28T21:36:38.891Z,56.13
2019-04-28T21:39:09.532Z,56.22
2019-04-28T21:41:39.834Z,55.91
2019-04-28T21:44:17.048Z,56.94
2019-04-28T21:46:48.700Z,56.35
2019-04-28T21:49:29.218Z,55.20
2019-04-28T21:51:59.356Z,56.75
2019-04-28T21:54:29.437Z,55.74
2019-04-28T21:56:59.497Z,55.66
2019-04-28T21:59:29.512Z,56.45
2019-04-28T22:01:59.606Z,55.71
2019-04-28T22:04:29.624Z,55.60
2019-04-28T22:06:59.649Z,55.36
2019-04-28T22:09:29.748Z,56.47
2019-04-28T22:11:59.767Z,56.36
2019-04-28T22:14:29.793Z,57.20
2019-04-28T22:16:59.822Z,57.48
2019-04-28T22:19:29.960Z,58.96
2019-04-28T22:21:59.964Z,58.46
2019-04-28T22:24:37.433Z,58.64
2019-04-28T22:27:09.322Z,58.86
2019-04-28T22:29:39.408Z,58.06
2019-04-28T22:32:09.451Z,58.45
2019-04-28T22:34:39.539Z,58.32
2019-04-28T22:37:09.554Z,58.65
2019-04-28T22:39:39.695Z,58.20
2019-04-28T22:42:11.377Z,59.55
2019-04-28T22:44:41.407Z,58.99
2019-04-28T22:47:12.385Z,59.36
2019-04-28T22:49:42.414Z,60.21
2019-04-28T22:52:12.482Z,59.65
2019-04-28T22:54:50.239Z,59.94
2019-04-28T22:57:24.695Z,60.25
2019-04-28T22:59:56.357Z,60.58
2019-04-28T23:02:27.457Z,61.09
2019-04-28T23:05:01.677Z,61.43
2019-04-28T23:07:33.057Z,60.20
2019-04-28T23:10:03.710Z,61.24
2019-04-28T23:12:34.258Z,60.44
2019-04-28T23:15:06.847Z,60.55
2019-04-28T23:17:36.981Z,60.14
2019-04-28T23:20:10.039Z,60.97
2019-04-28T23:22:47.217Z,62.72
2019-04-28T23:25:14.011Z,63.91
2019-04-28T23:27:45.131Z,62.99
2019-04-28T23:30:33.150Z,62.73
2019-04-28T23:33:03.167Z,62.82
2019-04-28T23:35:33.232Z,63.14
2019-04-28T23:38:03.241Z,64.09
2019-04-28T23:40:33.332Z,62.96
2019-04-28T23:43:14.036Z,63.64
2019-04-28T23:45:44.031Z,63.37
2019-04-28T23:48:14.092Z,63.00
2019-04-28T23:50:45.723Z,64.51
2019-04-28T23:53:17.385Z,64.41
2019-04-28T23:55:47.459Z,64.67
2019-04-28T23:58:17.480Z,63.68
